createdAt,value
2022-11-08T13:13:32.080Z,10.60
2022-11-08T13:17:34.148Z,15.60
2022-11-08T13:21:39.684Z,15.50
2022-11-08T13:25:43.131Z,15.40
2022-11-08T13:29:47.722Z,15.30
2022-11-08T13:34:06.581Z,15.30
2022-11-08T13:38:21.960Z,15.10
2022-11-08T13:42:38.027Z,15.00
2022-11-08T13:46:51.932Z,14.80
2022-11-08T13:50:55.524Z,14.70
2022-11-08T13:54:57.531Z,14.60
2022-11-08T13:58:59.586Z,14.60
2022-11-08T14:03:39.217Z,14.50
2022-11-08T14:07:46.824Z,14.40
2022-11-08T14:11:58.421Z,14.30
2022-11-08T14:16:07.073Z,14.20
2022-11-08T14:20:27.448Z,14.00
2022-11-08T14:24:35.002Z,13.80
2022-11-08T14:28:38.681Z,13.70
2022-11-08T14:32:40.778Z,13.60
2022-11-08T14:36:45.480Z,13.50
2022-11-08T14:40:50.767Z,13.20
2022-11-08T14:44:55.478Z,13.00
2022-11-08T14:48:58.119Z,12.90
2022-11-08T14:53:24.721Z,12.80
2022-11-08T14:57:31.240Z,12.70
2022-11-08T15:01:34.496Z,12.60
2022-11-08T15:05:39.985Z,12.60
2022-11-08T15:09:44.733Z,12.50
2022-11-08T15:13:51.477Z,12.40
2022-11-08T15:18:12.689Z,12.30
2022-11-08T15:22:26.213Z,12.20
2022-11-08T15:26:33.012Z,12.10
2022-11-08T15:30:38.567Z,11.90
2022-11-08T15:34:41.669Z,11.80
2022-11-08T15:38:48.879Z,11.60
2022-11-08T15:42:53.709Z,11.40
2022-11-08T15:46:56.567Z,11.20
2022-11-08T15:50:58.975Z,11.10
2022-11-08T15:55:01.017Z,10.90
2022-11-08T15:59:05.799Z,10.80
2022-11-08T16:03:08.637Z,10.60
2022-11-08T16:07:10.613Z,10.50
2022-11-08T16:11:18.398Z,10.50
2022-11-08T16:15:23.600Z,10.50
2022-11-08T16:19:25.683Z,10.40
2022-11-08T16:23:27.901Z,10.30
2022-11-08T16:27:29.861Z,10.10
2022-11-08T16:31:34.548Z,10.00
2022-11-08T16:35:36.493Z,9.80
2022-11-08T16:39:38.446Z,9.80
2022-11-08T16:43:40.396Z,9.70
2022-11-08T16:47:47.637Z,9.60
2022-11-08T16:51:49.832Z,9.50
2022-11-08T16:55:51.834Z,9.30
2022-11-08T16:59:53.852Z,9.30
2022-11-08T17:03:58.389Z,9.20
2022-11-08T17:08:00.373Z,9.20
2022-11-08T17:12:02.355Z,9.20
2022-11-08T17:16:04.747Z,9.10
2022-11-08T17:20:12.072Z,9.10
2022-11-08T17:24:20.995Z,9.00
2022-11-08T17:28:23.744Z,8.90
2022-11-08T17:32:25.824Z,8.80
2022-11-08T17:36:30.371Z,8.80
2022-11-08T17:40:32.354Z,8.80
2022-11-08T17:44:34.269Z,8.90
2022-11-08T17:48:36.941Z,9.00
2022-11-08T17:52:41.546Z,9.00
2022-11-08T17:56:43.575Z,9.00
2022-11-08T18:00:45.589Z,9.00
2022-11-08T18:04:47.570Z,8.90
2022-11-08T18:08:52.151Z,8.80
2022-11-08T18:12:54.169Z,8.90
2022-11-08T18:16:56.496Z,8.80
2022-11-08T18:20:58.498Z,8.90
2022-11-08T18:25:03.222Z,9.00
2022-11-08T18:29:06.607Z,9.10
2022-11-08T18:33:08.666Z,9.10
2022-11-08T18:37:11.211Z,9.20
2022-11-08T18:41:18.609Z,9.20
2022-11-08T18:45:20.604Z,9.30
2022-11-08T18:49:22.766Z,9.30
2022-11-08T18:53:24.851Z,9.30
2022-11-08T18:57:29.475Z,9.40
2022-11-08T19:01:31.469Z,9.40
2022-11-08T19:05:33.655Z,9.40
2022-11-08T19:09:35.750Z,9.40
2022-11-08T19:13:41.077Z,9.40
2022-11-08T19:17:43.825Z,9.40
2022-11-08T19:21:47.223Z,9.40
2022-11-08T19:25:54.584Z,9.40
2022-11-08T19:29:59.251Z,9.50
2022-11-08T19:34:01.231Z,9.50
2022-11-08T19:38:03.257Z,9.50
2022-11-08T19:42:05.766Z,9.40
2022-11-08T19:46:13.175Z,9.40
2022-11-08T19:50:15.357Z,9.40
2022-11-08T19:54:17.313Z,9.40
2022-11-08T19:58:19.478Z,9.40
2022-11-08T20:02:24.200Z,9.40
2022-11-08T20:06:26.235Z,9.40
2022-11-08T20:10:28.911Z,9.40
2022-11-08T20:14:30.909Z,9.40
2022-11-08T20:18:35.463Z,9.40
2022-11-08T20:22:37.426Z,9.40
2022-11-08T20:26:39.889Z,9.40
2022-11-08T20:30:41.852Z,9.40
2022-11-08T20:34:47.113Z,9.40
2022-11-08T20:38:49.252Z,9.40
2022-11-08T20:42:51.195Z,9.40
2022-11-08T20:46:53.216Z,9.40
2022-11-08T20:51:00.336Z,9.30
2022-11-08T20:55:02.392Z,9.20
2022-11-08T20:59:04.670Z,9.10
2022-11-08T21:03:06.618Z,9.00
2022-11-08T21:11:33.729Z,8.70
2022-11-08T21:15:35.727Z,8.60
2022-11-08T21:19:37.676Z,8.50
2022-11-08T21:23:44.603Z,8.40
2022-11-08T21:27:46.640Z,8.30
2022-11-08T21:31:48.716Z,8.20
2022-11-08T21:35:51.304Z,8.10
2022-11-08T21:39:55.832Z,8.00
2022-11-08T21:43:58.932Z,8.10
2022-11-08T21:48:01.001Z,8.10
2022-11-08T21:52:03.313Z,8.10
2022-11-08T21:56:08.160Z,8.10
2022-11-08T22:00:12.241Z,8.00
2022-11-08T22:04:14.387Z,8.00
2022-11-08T22:08:16.781Z,8.00
2022-11-08T22:12:21.864Z,7.90
2022-11-08T22:16:23.971Z,7.90
2022-11-08T22:20:25.995Z,7.90
2022-11-08T22:24:28.061Z,7.80
2022-11-08T22:28:32.721Z,7.70
2022-11-08T22:32:34.756Z,7.60
2022-11-08T22:36:43.974Z,7.60
2022-11-08T22:40:47.522Z,7.60
2022-11-08T22:44:52.062Z,7.50
2022-11-08T22:48:53.998Z,7.50
2022-11-08T22:52:55.963Z,7.50
2022-11-08T22:56:57.972Z,7.50
2022-11-08T23:01:15.659Z,7.50
2022-11-08T23:05:17.775Z,7.40
2022-11-08T23:09:19.759Z,7.40
2022-11-08T23:13:21.896Z,7.40
2022-11-08T23:17:26.665Z,7.40
2022-11-08T23:21:28.611Z,7.40
2022-11-08T23:25:30.603Z,7.40
2022-11-08T23:29:32.576Z,7.30
2022-11-08T23:33:42.030Z,7.30
2022-11-08T23:37:44.508Z,7.20
2022-11-08T23:41:46.485Z,7.20
2022-11-08T23:45:48.542Z,7.20
2022-11-08T23:49:53.089Z,7.20
2022-11-08T23:53:55.015Z,7.20
2022-11-08T23:57:57.034Z,7.20
